Impacts METAR Board
IDs:

KPHL - Philadelphia Intl, PA, US

Updated at: 2000 UTC 08 Feb 2023
Potential Impact None Slight Moderate High
Time 08/08Z 08/09Z 08/10Z 08/11Z 08/12Z 08/13Z 08/14Z 08/15Z 08/16Z 08/17Z 08/18Z 08/19Z 08/20Z
Temp40 41 40 40 38 38 44 51 52 55 56 58 57
Dewpt36 35 36 35 34 34 36 37 36 35 33 29 27
Altim30.11 30.11 30.13 30.14 30.16 30.19 30.21 30.24 30.25 30.24 30.22 30.22 30.24
VIS10 10 10 9 8 7 8 10 10 10 10 10 10
CIG140 160 160 160 200 -- -- -- -- -- -- -- --
CoverOVCOVCOVCBKNBKNSCTFEWFEWFEWSCTSCTSCTSCT
FltCatVFRVFRVFRVFRVFRVFRVFRVFRVFRVFRVFRVFRVFR
WX--------------------------
WDir2702802400000330320330310260300
WSpd4 3 4 0 0 0 0 12 13 10 9 10 9
WGst-- -- -- -- -- -- -- -- -- -- 17 -- --
Raw hourly METARs
KPHL 080754Z 27004KT 10SM SCT110 OVC140 04/02 A3011 RMK AO2 SLP195 T00440022
KPHL 080854Z 28003KT 10SM FEW095 OVC160 05/02 A3011 RMK AO2 SLP197 60000 T00500017 53002
KPHL 080954Z 24004KT 10SM SCT120 BKN160 OVC200 04/02 A3013 RMK AO2 SLP204 T00440022
KPHL 081054Z 00000KT 9SM BKN160 BKN200 04/02 A3014 RMK AO2 SLP206 T00440017
KPHL 081154Z 00000KT 8SM SCT160 BKN200 03/01 A3016 RMK AO2 SLP212 60000 70001 T00330011 10056 20028 52015
KPHL 081254Z 00000KT 7SM SCT180 03/01 A3019 RMK AO2 SLP221 T00330011
KPHL 081354Z 00000KT 8SM FEW200 07/02 A3021 RMK AO2 SLP230 T00670022
KPHL 081454Z 33012KT 10SM FEW200 11/03 A3024 RMK AO2 SLP238 T01060028 51026
KPHL 081554Z 32013KT 10SM FEW200 11/02 A3025 RMK AO2 SLP241 T01110022
KPHL 081654Z 33010KT 10SM FEW150 SCT250 13/02 A3024 RMK AO2 SLP238 T01280017
KPHL 081754Z 31009G17KT 10SM SCT250 13/01 A3022 RMK AO2 SLP232 T01330006 10133 20028 58007
KPHL 081854Z 26010KT 10SM SCT250 14/M02 A3022 RMK AO2 SLP231 T01441017
KPHL 081954Z 30009KT 10SM SCT250 14/M03 A3024 RMK AO2 SLP239 T01391028



Page loaded:  20:27 UTC  |   12:27 PM Pacific  |   01:27 PM Mountain  |   02:27 PM Central  |   03:27 PM Eastern

 

ADVISORIES

FORECASTS

FORECASTS

OBSERVATIONS

USER TOOLS

ABOUT US